Indianola, Nebraska
Current Conditions -  °F | °C
As of 10:53 AM on Friday 28 Nov 2014 (Local Time) from KMCK Reporting Station
Clear Clear  
Wind Chill: 58°   Ceiling: Unl
Heat Index: 58°   Visibility: 10mi
Dew Point: 26°   Wind: 8mph
Humidity: 30%   Direction: 260°W
Pressure: 29.84"   Gusts: NA
Location:  40.23°N, 100.42°W
Report Text: KMCK 281653Z AUTO 26007KT 10SM CLR 14/M03 A2984 RMK AO2 SLP106 T01441033 $
Loading
Personal Weather Stations






























Interactive Weather Map New forecast layout! Learn more

10-Day Weather Forecast

Advertisements
Track Severe Weather on mobile